Aviation Digital Data Service (ADDS)

Output produced by TAFs form (1114 UTC 16 April 2014)
found at http://aviationweather.gov/adds/tafs/
 
KFMN 160524Z 1606/1706 VRB06KT P6SM BKN250 
     FM161500 24007KT P6SM SCT150 SCT250 
     FM162000 30015G25KT P6SM BKN150 BKN250